Time;durP1;ratioP1;P1;durP2;ratioP2;P2;SDS_P1;SDS_P2;PMS_P1;PMS_P2;Temp;Humidity;BMP_temperature;BMP_pressure;BME280_temperature;BME280_humidity;BME280_pressure;Samples;Min_cycle;Max_cycle;Signal;HPM_P1;HPM_P2
2023/04/02 00:00:09;;;;;;;9.55;6.50;;;10.50;88.70;;;;;;5073276;28;20043;-63
2023/04/02 00:02:46;;;;;;;8.27;6.00;;;10.50;88.80;;;;;;5072119;28;20036;-49
2023/04/02 00:05:30;;;;;;;9.75;6.88;;;10.50;88.90;;;;;;5072842;28;20025;-52
2023/04/02 00:08:17;;;;;;;8.77;6.63;;;10.60;88.80;;;;;;5072865;28;20569;-52
2023/04/02 00:10:55;;;;;;;9.32;6.30;;;10.60;88.80;;;;;;5072477;28;20124;-58
2023/04/02 00:13:38;;;;;;;8.27;6.50;;;10.50;89.00;;;;;;5072864;28;20028;-59
2023/04/02 00:16:07;;;;;;;8.23;6.47;;;10.60;89.00;;;;;;5072597;28;20044;-63
2023/04/02 00:18:38;;;;;;;8.20;6.22;;;10.60;89.50;;;;;;5071497;28;20031;-61
2023/04/02 00:21:08;;;;;;;11.10;6.40;;;10.60;89.60;;;;;;5077559;28;20081;-60
2023/04/02 00:23:40;;;;;;;9.70;6.63;;;10.70;89.40;;;;;;5071543;28;20124;-61
2023/04/02 00:26:29;;;;;;;9.07;6.35;;;10.70;89.00;;;;;;5071250;28;20059;-60
2023/04/02 00:28:55;;;;;;;9.63;6.35;;;10.60;88.60;;;;;;5072437;28;20355;-60
2023/04/02 00:31:21;;;;;;;13.18;6.78;;;10.60;88.60;;;;;;5072056;28;20021;-61
2023/04/02 00:33:48;;;;;;;8.07;6.05;;;10.60;88.50;;;;;;5069716;28;20036;-61
2023/04/02 00:36:14;;;;;;;8.82;6.50;;;10.50;88.50;;;;;;5072342;28;20111;-62
2023/04/02 00:38:42;;;;;;;7.97;5.95;;;10.40;88.70;;;;;;5071488;28;20087;-62
2023/04/02 00:41:16;;;;;;;11.20;6.25;;;10.40;88.60;;;;;;5071314;28;20017;-63
2023/04/02 00:43:45;;;;;;;8.57;6.07;;;10.30;88.80;;;;;;5071797;28;20433;-62
2023/04/02 00:46:15;;;;;;;8.82;5.82;;;10.20;89.00;;;;;;5066959;28;20020;-60
2023/04/02 00:49:01;;;;;;;9.35;5.70;;;10.20;89.40;;;;;;5077993;28;20028;-61
2023/04/02 00:51:35;;;;;;;7.45;6.00;;;10.10;89.50;;;;;;5071401;28;20032;-58
2023/04/02 00:54:05;;;;;;;9.02;5.53;;;10.10;89.50;;;;;;5070924;28;20072;-58
2023/04/02 00:56:45;;;;;;;8.82;6.03;;;10.10;90.00;;;;;;5071273;28;20081;-59
2023/04/02 00:59:29;;;;;;;8.30;6.40;;;10.10;90.00;;;;;;5071676;28;20085;-60
2023/04/02 01:02:21;;;;;;;8.05;5.78;;;10.00;89.90;;;;;;5071323;28;20028;-60
2023/04/02 01:04:53;;;;;;;9.52;5.50;;;10.00;89.80;;;;;;5062796;28;20553;-60
2023/04/02 01:07:42;;;;;;;8.15;5.95;;;10.00;90.10;;;;;;5071303;28;20036;-61
2023/04/02 01:10:10;;;;;;;8.23;5.60;;;10.00;90.20;;;;;;5056840;28;20071;-61
2023/04/02 01:12:54;;;;;;;8.07;5.82;;;9.90;90.30;;;;;;5071097;28;20041;-61
2023/04/02 01:15:35;;;;;;;11.10;6.57;;;9.90;90.50;;;;;;5070159;28;20021;-59
2023/04/02 01:18:12;;;;;;;6.90;5.85;;;9.90;90.60;;;;;;5072102;28;20417;-60
2023/04/02 01:20:55;;;;;;;9.65;6.38;;;9.90;90.60;;;;;;5060529;28;20024;-60
2023/04/02 01:23:29;;;;;;;8.13;5.75;;;10.00;90.70;;;;;;5070621;28;20048;-61
2023/04/02 01:26:34;;;;;;;7.55;5.82;;;10.00;90.70;;;;;;5070830;28;20025;-60
2023/04/02 01:29:07;;;;;;;7.28;5.15;;;10.00;90.60;;;;;;5062263;28;20071;-59
2023/04/02 01:31:34;;;;;;;9.82;6.15;;;10.00;90.60;;;;;;5075089;28;20052;-58
2023/04/02 01:34:02;;;;;;;8.48;6.03;;;10.10;90.60;;;;;;5073767;28;20383;-58
2023/04/02 01:36:50;;;;;;;8.70;6.53;;;10.10;90.50;;;;;;5073697;28;20388;-61
2023/04/02 01:39:35;;;;;;;9.43;6.57;;;10.00;90.40;;;;;;5075084;28;20024;-60
2023/04/02 01:42:19;;;;;;;10.85;7.10;;;10.00;90.10;;;;;;5075745;28;20032;-52
2023/04/02 01:44:53;;;;;;;10.88;6.03;;;9.90;90.20;;;;;;5073894;28;20090;-52
2023/04/02 01:47:27;;;;;;;9.80;6.43;;;9.80;90.40;;;;;;5085957;28;20024;-58
2023/04/02 01:50:15;;;;;;;11.48;6.68;;;9.70;90.50;;;;;;5075682;28;20060;-58
2023/04/02 01:52:43;;;;;;;9.02;6.63;;;9.60;90.70;;;;;;5074570;28;20048;-59
2023/04/02 01:55:11;;;;;;;13.63;6.60;;;9.60;90.90;;;;;;5075250;28;20021;-59
2023/04/02 01:57:40;;;;;;;10.27;7.18;;;9.50;91.10;;;;;;5074349;28;20060;-59
2023/04/02 02:00:11;;;;;;;8.32;6.80;;;9.50;91.30;;;;;;5074914;28;20040;-59
2023/04/02 02:02:37;;;;;;;10.18;7.28;;;9.40;91.50;;;;;;5074361;28;20031;-57
2023/04/02 02:05:04;;;;;;;9.63;6.38;;;9.40;91.70;;;;;;5074509;28;20025;-59
2023/04/02 02:07:29;;;;;;;14.45;7.63;;;9.30;91.90;;;;;;5061319;28;20375;-61
2023/04/02 02:09:55;;;;;;;10.13;6.80;;;9.20;92.20;;;;;;5074498;28;20032;-61
2023/04/02 02:12:21;;;;;;;11.60;7.00;;;9.20;92.30;;;;;;5074704;28;20035;-55
2023/04/02 02:14:51;;;;;;;10.95;7.65;;;9.20;92.60;;;;;;5075192;28;20024;-52
2023/04/02 02:17:22;;;;;;;10.55;7.97;;;9.20;92.70;;;;;;5064430;28;20505;-59
2023/04/02 02:19:52;;;;;;;13.05;8.38;;;9.20;93.00;;;;;;5074644;28;20028;-59
2023/04/02 02:22:31;;;;;;;11.10;8.32;;;9.10;93.10;;;;;;5074598;28;20028;-59
2023/04/02 02:25:00;;;;;;;12.18;7.53;;;9.10;93.10;;;;;;5071488;28;20053;-59
2023/04/02 02:27:26;;;;;;;14.63;7.97;;;9.10;93.30;;;;;;5064909;28;20113;-53
2023/04/02 02:29:56;;;;;;;10.73;7.65;;;9.10;93.40;;;;;;5073583;28;20029;-50
2023/04/02 02:32:27;;;;;;;12.45;7.35;;;9.10;93.40;;;;;;5073238;28;20036;-60
2023/04/02 02:35:23;;;;;;;9.82;7.32;;;9.00;93.50;;;;;;5073039;28;20103;-61
2023/04/02 02:38:05;;;;;;;9.50;6.95;;;9.00;93.60;;;;;;5072404;28;20480;-48
2023/04/02 02:40:37;;;;;;;13.05;8.07;;;8.90;94.00;;;;;;5072828;28;20047;-59
2023/04/02 02:43:10;;;;;;;10.85;7.28;;;8.90;94.10;;;;;;5078169;28;20039;-59
2023/04/02 02:45:40;;;;;;;12.23;7.40;;;8.90;94.30;;;;;;5074799;28;20109;-53
2023/04/02 02:48:11;;;;;;;11.25;6.80;;;8.90;94.50;;;;;;5084262;28;20032;-50
2023/04/02 02:50:38;;;;;;;12.90;6.93;;;8.90;94.60;;;;;;5071785;28;20033;-49
2023/04/02 02:53:22;;;;;;;10.55;6.78;;;9.00;94.80;;;;;;5064442;28;20040;-48
2023/04/02 02:55:52;;;;;;;8.63;7.40;;;9.00;94.70;;;;;;5073010;28;20047;-64
2023/04/02 02:58:31;;;;;;;10.43;7.60;;;9.00;94.70;;;;;;5073012;28;20017;-63
2023/04/02 03:00:57;;;;;;;11.00;7.63;;;9.00;94.40;;;;;;5073118;28;20028;-49
2023/04/02 03:03:27;;;;;;;9.68;6.78;;;9.00;94.80;;;;;;5072442;28;20037;-50
2023/04/02 03:05:56;;;;;;;11.50;7.60;;;9.00;94.80;;;;;;5073235;28;20418;-51
2023/04/02 03:08:31;;;;;;;10.07;7.50;;;9.00;94.80;;;;;;5072678;28;20027;-53
2023/04/02 03:11:09;;;;;;;9.98;7.25;;;9.00;94.80;;;;;;5073329;28;20028;-60
2023/04/02 03:13:37;;;;;;;12.77;7.80;;;8.90;94.70;;;;;;5068087;28;20111;-60
2023/04/02 03:16:12;;;;;;;10.63;7.32;;;9.00;95.00;;;;;;5073045;28;20115;-60
2023/04/02 03:19:06;;;;;;;11.13;8.20;;;9.00;95.00;;;;;;5072194;28;20047;-60
2023/04/02 03:21:50;;;;;;;12.20;8.00;;;8.90;94.70;;;;;;5080583;28;20029;-52
2023/04/02 03:24:37;;;;;;;12.02;7.50;;;8.90;94.70;;;;;;5031989;28;1171465;-53
2023/04/02 03:27:15;;;;;;;12.13;7.03;;;8.90;95.10;;;;;;5061923;28;20035;-61
2023/04/02 03:29:48;;;;;;;9.95;7.68;;;8.80;95.30;;;;;;5073023;28;20079;-60
2023/04/02 03:32:21;;;;;;;9.68;7.35;;;8.90;95.60;;;;;;5073429;28;20021;-63
2023/04/02 03:34:57;;;;;;;11.35;7.53;;;8.80;95.60;;;;;;5071835;28;20142;-63
2023/04/02 03:37:47;;;;;;;12.90;7.85;;;8.90;95.50;;;;;;5073196;28;20088;-59
2023/04/02 03:40:23;;;;;;;12.27;7.68;;;8.90;95.50;;;;;;5069004;28;20068;-62
2023/04/02 03:43:01;;;;;;;10.50;7.55;;;8.80;95.40;;;;;;5073201;28;20442;-64
2023/04/02 03:45:32;;;;;;;12.32;7.45;;;8.80;95.50;;;;;;5072615;28;20104;-63
2023/04/02 03:48:25;;;;;;;10.93;7.72;;;8.80;95.60;;;;;;5078382;28;20091;-63
2023/04/02 03:51:01;;;;;;;12.43;7.68;;;8.80;95.40;;;;;;5072946;28;20106;-61
2023/04/02 03:53:28;;;;;;;11.63;8.20;;;8.70;95.70;;;;;;5071333;28;20072;-61
2023/04/02 03:55:55;;;;;;;9.75;7.75;;;8.70;96.00;;;;;;5072457;28;20336;-61
2023/04/02 03:58:45;;;;;;;11.88;7.65;;;8.70;96.20;;;;;;5072549;28;20578;-60
2023/04/02 04:01:36;;;;;;;10.40;7.28;;;8.70;96.20;;;;;;5061802;28;20024;-60
2023/04/02 04:04:23;;;;;;;10.82;7.70;;;8.60;95.90;;;;;;5072613;28;20039;-59
2023/04/02 04:06:51;;;;;;;12.02;7.25;;;8.60;96.00;;;;;;5072059;28;20036;-59
2023/04/02 04:09:37;;;;;;;8.77;7.00;;;8.60;96.40;;;;;;5072661;28;20037;-60
2023/04/02 04:12:33;;;;;;;11.95;7.43;;;8.60;96.20;;;;;;5072648;28;20543;-60
2023/04/02 04:15:18;;;;;;;11.30;7.10;;;8.50;96.20;;;;;;5069242;28;20040;-59
2023/04/02 04:18:10;;;;;;;11.45;7.40;;;8.50;96.30;;;;;;5061831;28;20032;-60
2023/04/02 04:20:57;;;;;;;8.75;6.82;;;8.50;96.60;;;;;;5069981;28;20629;-59
2023/04/02 04:23:34;;;;;;;10.32;6.97;;;8.50;96.50;;;;;;5070677;28;20537;-59
2023/04/02 04:26:08;;;;;;;12.85;7.72;;;8.40;96.80;;;;;;5076012;28;20067;-60
2023/04/02 04:29:08;;;;;;;10.52;7.45;;;8.40;97.10;;;;;;5070950;28;20478;-62
2023/04/02 04:31:54;;;;;;;11.10;7.63;;;8.40;97.00;;;;;;5072228;28;20032;-60
2023/04/02 04:34:45;;;;;;;9.48;6.90;;;8.40;97.10;;;;;;5068209;28;20032;-60
2023/04/02 04:37:24;;;;;;;10.98;7.25;;;8.40;97.10;;;;;;5062998;28;20028;-63
2023/04/02 04:40:08;;;;;;;9.05;7.28;;;8.30;97.50;;;;;;5072082;28;20031;-64
2023/04/02 04:42:37;;;;;;;9.15;6.32;;;8.40;97.50;;;;;;5073611;28;20020;-62
2023/04/02 04:45:33;;;;;;;9.90;6.47;;;8.30;97.80;;;;;;5060976;28;20077;-63
2023/04/02 04:48:03;;;;;;;9.43;6.47;;;8.40;97.60;;;;;;5084479;28;20051;-54
2023/04/02 04:50:54;;;;;;;11.38;6.57;;;8.30;97.90;;;;;;5071132;28;20024;-58
2023/04/02 04:53:23;;;;;;;8.48;6.15;;;8.30;97.90;;;;;;5061140;28;20040;-50
2023/04/02 04:55:52;;;;;;;9.52;6.05;;;8.30;98.10;;;;;;5071292;28;20386;-48
2023/04/02 04:58:21;;;;;;;9.95;6.22;;;8.30;98.10;;;;;;5072066;28;20029;-48
2023/04/02 05:01:04;;;;;;;9.10;6.00;;;8.40;98.20;;;;;;5071936;28;20047;-59
2023/04/02 05:03:53;;;;;;;10.38;6.38;;;8.30;97.90;;;;;;5071598;28;20082;-59
2023/04/02 05:06:39;;;;;;;9.02;6.20;;;8.30;97.90;;;;;;5071832;28;20094;-59
2023/04/02 05:09:23;;;;;;;7.75;5.72;;;8.30;97.90;;;;;;5072056;28;20467;-60
2023/04/02 05:11:58;;;;;;;10.48;6.38;;;8.30;97.80;;;;;;5071424;28;20036;-59
2023/04/02 05:14:33;;;;;;;10.13;6.43;;;8.30;98.00;;;;;;5071778;28;20115;-58
2023/04/02 05:17:18;;;;;;;8.38;5.80;;;8.30;98.10;;;;;;5071330;28;20039;-49
2023/04/02 05:20:17;;;;;;;8.88;5.93;;;8.20;98.10;;;;;;5071476;28;20028;-48
2023/04/02 05:22:50;;;;;;;7.45;6.30;;;8.20;98.20;;;;;;5071411;28;20515;-62
2023/04/02 05:25:19;;;;;;;8.57;6.15;;;8.20;98.70;;;;;;5071279;28;20032;-62
2023/04/02 05:28:14;;;;;;;8.27;6.20;;;8.20;98.90;;;;;;5071445;28;20025;-61
2023/04/02 05:30:51;;;;;;;10.18;6.32;;;8.20;98.40;;;;;;5062709;28;20035;-60
2023/04/02 05:33:19;;;;;;;8.25;6.32;;;8.20;98.70;;;;;;5070576;28;20490;-59
2023/04/02 05:35:50;;;;;;;7.28;5.60;;;8.20;98.90;;;;;;5071841;28;20024;-59
2023/04/02 05:38:21;;;;;;;9.85;6.05;;;8.20;99.00;;;;;;5071232;28;20028;-58
2023/04/02 05:41:29;;;;;;;9.43;6.78;;;8.30;99.00;;;;;;5071723;28;20424;-64
2023/04/02 05:44:21;;;;;;;10.00;6.95;;;8.30;99.10;;;;;;4975527;28;20045;-60
2023/04/02 05:46:57;;;;;;;7.72;6.25;;;8.30;98.40;;;;;;4979703;28;20040;-49
2023/04/02 05:49:47;;;;;;;9.80;7.18;;;8.30;98.80;;;;;;5045383;28;20426;-53
2023/04/02 05:52:28;;;;;;;9.15;7.10;;;8.30;98.60;;;;;;5071069;28;20032;-49
2023/04/02 05:54:57;;;;;;;8.95;6.72;;;8.30;98.90;;;;;;5071261;28;20082;-49
2023/04/02 05:57:31;;;;;;;10.02;7.53;;;8.30;99.20;;;;;;5070983;28;20082;-62
2023/04/02 06:00:02;;;;;;;8.93;7.07;;;8.20;99.00;;;;;;5071574;28;20033;-65
2023/04/02 06:02:30;;;;;;;10.20;7.50;;;8.20;99.30;;;;;;5070876;28;20101;-62
2023/04/02 06:05:19;;;;;;;9.23;7.53;;;8.30;99.40;;;;;;5071465;28;20039;-62
2023/04/02 06:08:09;;;;;;;9.55;8.10;;;8.20;99.20;;;;;;5060332;28;20070;-61
2023/04/02 06:11:07;;;;;;;10.70;8.02;;;8.20;99.30;;;;;;5070805;28;20020;-49
2023/04/02 06:13:33;;;;;;;10.32;7.45;;;8.20;99.20;;;;;;5035623;28;20059;-49
2023/04/02 06:15:59;;;;;;;8.93;6.75;;;8.20;99.40;;;;;;5071870;28;20029;-50
2023/04/02 06:18:28;;;;;;;11.10;7.72;;;8.20;99.50;;;;;;5074756;28;20048;-54
2023/04/02 06:20:54;;;;;;;8.50;7.15;;;8.20;99.60;;;;;;5085300;28;20071;-49
2023/04/02 06:23:39;;;;;;;8.88;6.65;;;8.10;99.70;;;;;;5076775;28;20075;-53
2023/04/02 06:26:46;;;;;;;10.30;7.40;;;8.10;99.70;;;;;;5075204;28;20337;-59
2023/04/02 06:29:45;;;;;;;9.10;6.78;;;8.10;99.80;;;;;;5073348;28;20098;-59
2023/04/02 06:32:12;;;;;;;9.55;6.28;;;8.10;99.50;;;;;;5006830;28;20115;-60
2023/04/02 06:34:40;;;;;;;9.48;7.18;;;8.20;99.90;;;;;;5073110;28;20163;-60
2023/04/02 06:37:37;;;;;;;7.88;6.82;;;8.20;99.90;;;;;;5074419;28;20028;-62
2023/04/02 06:40:25;;;;;;;10.32;7.43;;;8.20;99.60;;;;;;5062688;28;20475;-62
2023/04/02 06:42:56;;;;;;;8.95;6.70;;;8.20;99.90;;;;;;5075611;28;20576;-61
2023/04/02 06:45:30;;;;;;;8.98;7.05;;;8.10;99.90;;;;;;5056137;28;20102;-58
2023/04/02 06:48:00;;;;;;;7.68;6.53;;;8.20;99.90;;;;;;5074579;28;20083;-59
2023/04/02 06:50:31;;;;;;;9.52;7.68;;;8.20;99.90;;;;;;5074155;28;20029;-61
2023/04/02 06:53:05;;;;;;;7.43;6.53;;;8.20;99.90;;;;;;5073645;28;20065;-62
2023/04/02 06:55:47;;;;;;;9.32;7.30;;;8.30;99.90;;;;;;5074073;28;20036;-61
2023/04/02 06:58:18;;;;;;;9.25;7.25;;;8.30;99.90;;;;;;5074124;28;20467;-60
2023/04/02 07:00:46;;;;;;;7.80;6.78;;;8.30;99.90;;;;;;5074027;28;20020;-60
2023/04/02 07:03:34;;;;;;;8.23;6.85;;;8.30;99.90;;;;;;5074202;28;20039;-61
2023/04/02 07:06:02;;;;;;;10.98;7.97;;;8.40;99.90;;;;;;5062125;28;20032;-61
2023/04/02 07:08:27;;;;;;;8.80;7.70;;;8.50;99.90;;;;;;5073491;28;20029;-60
2023/04/02 07:10:55;;;;;;;9.43;8.07;;;8.50;99.90;;;;;;5074006;28;20029;-53
2023/04/02 07:13:22;;;;;;;10.75;8.35;;;8.50;99.90;;;;;;5073733;28;20068;-50
2023/04/02 07:15:51;;;;;;;8.57;7.35;;;8.50;99.90;;;;;;5073489;28;20460;-58
2023/04/02 07:18:33;;;;;;;10.02;7.65;;;8.60;99.90;;;;;;5073543;28;20118;-58
2023/04/02 07:20:59;;;;;;;8.93;7.75;;;8.60;99.90;;;;;;5074609;28;20467;-63
2023/04/02 07:23:26;;;;;;;10.20;7.75;;;8.60;99.90;;;;;;5073117;28;20060;-63
2023/04/02 07:25:55;;;;;;;9.23;8.27;;;8.60;99.90;;;;;;5073810;28;20106;-49
2023/04/02 07:28:21;;;;;;;8.90;8.00;;;8.60;99.90;;;;;;5072035;28;20348;-48
2023/04/02 07:30:47;;;;;;;9.80;8.05;;;8.60;99.90;;;;;;5073185;28;20044;-49
2023/04/02 07:33:15;;;;;;;10.35;7.75;;;8.70;99.90;;;;;;5063258;28;20375;-51
2023/04/02 07:35:41;;;;;;;8.82;7.50;;;8.70;99.90;;;;;;5073559;28;20356;-62
2023/04/02 07:38:07;;;;;;;9.52;7.88;;;8.70;99.90;;;;;;5073451;28;20032;-62
2023/04/02 07:40:33;;;;;;;9.45;7.90;;;8.70;99.90;;;;;;5073248;28;20441;-61
2023/04/02 07:42:59;;;;;;;8.05;6.90;;;8.70;99.90;;;;;;5071797;28;20494;-60
2023/04/02 07:45:25;;;;;;;7.97;6.68;;;8.70;99.80;;;;;;5073278;28;20028;-61
2023/04/02 07:47:51;;;;;;;8.13;6.57;;;8.70;99.80;;;;;;5074725;28;20029;-61
2023/04/02 07:50:16;;;;;;;7.38;6.30;;;8.70;99.80;;;;;;5073173;28;20028;-59
2023/04/02 07:52:42;;;;;;;8.13;6.57;;;8.70;99.80;;;;;;5072284;28;20476;-62
2023/04/02 07:55:13;;;;;;;6.63;5.75;;;8.70;99.90;;;;;;5073085;28;20025;-64
2023/04/02 07:57:47;;;;;;;5.90;5.13;;;8.70;99.70;;;;;;5072692;28;20429;-63
2023/04/02 08:00:14;;;;;;;6.45;4.57;;;8.70;99.50;;;;;;5072596;28;20056;-63
2023/04/02 08:02:40;;;;;;;5.97;4.78;;;8.70;99.50;;;;;;5072900;28;20100;-64
2023/04/02 08:05:06;;;;;;;6.68;4.97;;;8.70;99.60;;;;;;5072678;28;20027;-64
2023/04/02 08:07:32;;;;;;;5.22;4.53;;;8.70;99.50;;;;;;5054190;28;20021;-64
2023/04/02 08:09:58;;;;;;;4.68;4.28;;;8.70;99.60;;;;;;5072212;28;20455;-64
2023/04/02 08:12:23;;;;;;;4.53;4.00;;;8.70;99.60;;;;;;5072798;28;20021;-65
2023/04/02 08:14:49;;;;;;;5.13;4.25;;;8.70;99.60;;;;;;5071951;28;20043;-66
2023/04/02 08:17:15;;;;;;;5.35;4.07;;;8.70;99.50;;;;;;5072811;28;20104;-63
2023/04/02 08:19:41;;;;;;;4.85;4.20;;;8.70;99.60;;;;;;5071913;28;20459;-61
2023/04/02 08:22:06;;;;;;;5.38;4.18;;;8.70;99.70;;;;;;5085817;28;20107;-62
2023/04/02 08:24:32;;;;;;;4.53;3.63;;;8.70;99.50;;;;;;5072363;28;20097;-61
2023/04/02 08:26:57;;;;;;;5.85;3.58;;;8.70;99.20;;;;;;5061105;28;20035;-62
2023/04/02 08:29:23;;;;;;;5.43;3.85;;;8.70;99.00;;;;;;5069862;28;20048;-63
2023/04/02 08:31:49;;;;;;;6.28;4.00;;;8.70;99.10;;;;;;5071976;28;20032;-62
2023/04/02 08:34:15;;;;;;;4.35;3.55;;;8.70;99.00;;;;;;5069608;28;20475;-62
2023/04/02 08:36:43;;;;;;;5.22;3.38;;;8.70;98.70;;;;;;5072029;28;20024;-56
2023/04/02 08:39:12;;;;;;;4.68;3.65;;;8.70;98.80;;;;;;5071868;28;20020;-56
2023/04/02 08:41:55;;;;;;;4.45;3.88;;;8.70;98.80;;;;;;5072285;28;20078;-64
2023/04/02 08:44:20;;;;;;;7.10;3.88;;;8.70;98.60;;;;;;5069565;28;20025;-64
2023/04/02 08:46:51;;;;;;;4.63;3.70;;;8.60;99.00;;;;;;5080798;28;20360;-64
2023/04/02 08:49:43;;;;;;;4.40;3.77;;;8.60;99.00;;;;;;5074048;28;20035;-64
2023/04/02 08:52:22;;;;;;;5.55;3.97;;;8.60;98.70;;;;;;5071735;28;20074;-62
2023/04/02 08:54:48;;;;;;;5.78;4.18;;;8.60;98.70;;;;;;5060666;28;20048;-64
2023/04/02 08:57:40;;;;;;;6.55;4.18;;;8.60;98.80;;;;;;5071718;28;20064;-54
2023/04/02 09:00:21;;;;;;;4.50;4.10;;;8.60;98.50;;;;;;5071830;28;20497;-58
2023/04/02 09:02:55;;;;;;;7.18;4.18;;;8.60;98.60;;;;;;5052215;28;20033;-63
2023/04/02 09:05:33;;;;;;;6.60;3.97;;;8.60;99.00;;;;;;5067446;28;20028;-64
2023/04/02 09:08:01;;;;;;;6.15;4.25;;;8.60;98.70;;;;;;5071677;28;20032;-64
2023/04/02 09:10:41;;;;;;;7.45;4.05;;;8.50;99.20;;;;;;5071818;28;20052;-55
2023/04/02 09:13:19;;;;;;;7.35;4.13;;;8.60;99.10;;;;;;5071709;28;20505;-57
2023/04/02 09:15:46;;;;;;;4.45;4.03;;;8.60;99.30;;;;;;5058450;28;20383;-63
2023/04/02 09:18:17;;;;;;;6.57;4.47;;;8.60;99.60;;;;;;5059393;28;20020;-64
2023/04/02 09:20:43;;;;;;;5.18;4.45;;;8.60;99.40;;;;;;5080948;28;20024;-63
2023/04/02 09:23:18;;;;;;;4.57;4.05;;;8.70;99.60;;;;;;5064897;28;20044;-62
2023/04/02 09:25:48;;;;;;;6.93;4.18;;;8.70;99.50;;;;;;5074312;28;20024;-63
2023/04/02 09:28:14;;;;;;;5.50;4.20;;;8.70;99.30;;;;;;5072711;28;20021;-62
2023/04/02 09:30:58;;;;;;;5.38;4.40;;;8.70;99.30;;;;;;5071133;28;20413;-55
2023/04/02 09:33:41;;;;;;;4.82;4.30;;;8.80;98.90;;;;;;5048599;28;20411;-56
2023/04/02 09:36:36;;;;;;;7.13;4.70;;;8.80;98.60;;;;;;5066993;28;20029;-53
2023/04/02 09:39:14;;;;;;;5.78;4.47;;;8.80;98.70;;;;;;5082898;28;20040;-55
2023/04/02 09:41:40;;;;;;;7.80;4.90;;;8.80;99.00;;;;;;5074090;28;20025;-62
2023/04/02 09:44:20;;;;;;;7.03;5.00;;;8.80;99.20;;;;;;5078634;28;20092;-62
2023/04/02 09:47:02;;;;;;;6.10;5.13;;;8.80;98.90;;;;;;5072994;28;20029;-61
2023/04/02 09:49:35;;;;;;;;;;;8.90;99.00;;;;;;5081830;28;20020;-62
2023/04/02 09:52:10;;;;;;;7.10;5.40;;;8.90;98.90;;;;;;5070787;28;20317;-62
2023/04/02 09:54:43;;;;;;;6.40;4.57;;;9.00;98.90;;;;;;5074154;28;20040;-62
2023/04/02 09:57:23;;;;;;;10.35;5.05;;;9.00;98.90;;;;;;5086301;28;20024;-63
2023/04/02 10:00:11;;;;;;;7.50;5.10;;;9.10;98.50;;;;;;5085876;28;20024;-63
2023/04/02 10:02:37;;;;;;;6.15;4.68;;;9.10;98.20;;;;;;5075888;28;20352;-62
2023/04/02 10:05:05;;;;;;;7.72;5.07;;;9.10;98.40;;;;;;5087020;28;20032;-63
2023/04/02 10:07:43;;;;;;;6.50;4.72;;;9.10;98.30;;;;;;5083825;28;20021;-61
2023/04/02 10:10:28;;;;;;;5.28;4.43;;;9.10;98.50;;;;;;5071797;28;20475;-62
2023/04/02 10:13:16;;;;;;;6.55;4.28;;;9.20;98.20;;;;;;5074488;28;20028;-61
2023/04/02 10:15:47;;;;;;;4.90;3.80;;;9.20;98.10;;;;;;5082215;28;20021;-64
2023/04/02 10:18:21;;;;;;;4.45;3.83;;;9.20;98.30;;;;;;5062655;28;20029;-63
2023/04/02 10:20:50;;;;;;;4.95;3.88;;;9.30;98.20;;;;;;5075079;28;20075;-61
2023/04/02 10:23:17;;;;;;;5.32;3.75;;;9.30;97.90;;;;;;5074014;28;20131;-61
2023/04/02 10:26:02;;;;;;;6.20;3.75;;;9.30;97.70;;;;;;5074762;28;20024;-63
2023/04/02 10:28:28;;;;;;;6.85;3.47;;;9.40;97.40;;;;;;5074253;28;20025;-63
2023/04/02 10:31:07;;;;;;;6.72;4.03;;;9.40;97.50;;;;;;5074766;28;20082;-63
2023/04/02 10:33:36;;;;;;;4.65;3.67;;;9.40;97.30;;;;;;5064577;28;20033;-63
2023/04/02 10:36:35;;;;;;;4.75;3.33;;;9.50;97.20;;;;;;5074826;28;20028;-63
2023/04/02 10:39:11;;;;;;;4.57;3.70;;;9.50;96.90;;;;;;5074626;28;20396;-63
2023/04/02 10:41:53;;;;;;;6.72;3.90;;;9.50;96.80;;;;;;5073964;28;20653;-64
2023/04/02 10:44:30;;;;;;;5.22;4.07;;;9.60;96.80;;;;;;5075239;28;20031;-64
2023/04/02 10:47:25;;;;;;;6.88;3.78;;;9.60;96.60;;;;;;5085338;28;20073;-64
2023/04/02 10:49:51;;;;;;;5.90;3.88;;;9.60;96.30;;;;;;5065014;28;20025;-65
2023/04/02 10:52:25;;;;;;;5.70;3.97;;;9.60;96.20;;;;;;5073995;28;20103;-66
2023/04/02 10:54:54;;;;;;;4.55;3.30;;;9.60;95.90;;;;;;5075936;28;20530;-64
2023/04/02 10:57:40;;;;;;;6.22;4.20;;;9.60;95.60;;;;;;5070438;28;20064;-56
2023/04/02 11:00:17;;;;;;;6.03;3.80;;;9.60;95.30;;;;;;5073426;28;20033;-58
2023/04/02 11:02:58;;;;;;;5.40;3.95;;;9.50;95.30;;;;;;5068775;28;20103;-57
2023/04/02 11:05:43;;;;;;;7.53;4.05;;;9.50;95.30;;;;;;5073888;28;20535;-65
2023/04/02 11:08:27;;;;;;;5.68;4.15;;;9.50;95.30;;;;;;5075715;28;20094;-65
2023/04/02 11:11:06;;;;;;;6.60;4.28;;;9.40;95.30;;;;;;5063052;28;20048;-63
2023/04/02 11:13:36;;;;;;;5.43;4.30;;;9.40;95.30;;;;;;5070124;28;20498;-63
2023/04/02 11:16:02;;;;;;;6.28;4.25;;;9.40;95.30;;;;;;5073447;28;20502;-63
2023/04/02 11:18:37;;;;;;;9.50;4.60;;;9.40;95.30;;;;;;5060016;28;20055;-63
2023/04/02 11:21:40;;;;;;;5.85;4.20;;;9.40;95.20;;;;;;5084399;28;20115;-65
2023/04/02 11:24:21;;;;;;;6.25;3.78;;;9.40;95.00;;;;;;5068074;28;20056;-64
2023/04/02 11:26:48;;;;;;;5.13;3.90;;;9.40;95.00;;;;;;5073331;28;20120;-57
2023/04/02 11:29:27;;;;;;;5.18;3.67;;;9.30;95.10;;;;;;5073424;28;20041;-58
2023/04/02 11:32:26;;;;;;;5.78;3.70;;;9.30;95.10;;;;;;5060844;28;20090;-63
2023/04/02 11:34:53;;;;;;;6.15;3.90;;;9.30;94.80;;;;;;5071889;28;20041;-63
2023/04/02 11:37:30;;;;;;;6.03;4.47;;;9.30;95.10;;;;;;5064167;28;20025;-64
2023/04/02 11:40:00;;;;;;;5.93;3.85;;;9.40;94.90;;;;;;5063928;28;20060;-64
2023/04/02 11:42:41;;;;;;;5.75;3.35;;;9.40;95.00;;;;;;5073939;28;20028;-64
2023/04/02 11:45:22;;;;;;;4.78;3.70;;;9.40;94.80;;;;;;5063548;28;20028;-64
2023/04/02 11:47:59;;;;;;;4.90;3.53;;;9.40;94.60;;;;;;5084819;28;20049;-65
2023/04/02 11:50:37;;;;;;;3.42;3.13;;;9.40;94.50;;;;;;5073182;28;20031;-62
2023/04/02 11:53:13;;;;;;;5.38;3.60;;;9.40;94.50;;;;;;5068531;28;20468;-64
2023/04/02 11:55:45;;;;;;;4.45;3.17;;;9.40;94.40;;;;;;5072824;28;20021;-63
2023/04/02 11:58:22;;;;;;;4.93;3.35;;;9.40;94.60;;;;;;5073201;28;20511;-65
2023/04/02 12:01:17;;;;;;;3.38;3.00;;;9.40;94.40;;;;;;5072610;28;20501;-64
2023/04/02 12:03:48;;;;;;;4.80;3.42;;;9.40;94.30;;;;;;5072547;28;20064;-64
2023/04/02 12:06:33;;;;;;;4.28;3.58;;;9.40;94.10;;;;;;5072691;28;20432;-63
2023/04/02 12:09:17;;;;;;;6.32;3.85;;;9.40;93.90;;;;;;5072529;28;20375;-63
2023/04/02 12:11:44;;;;;;;8.85;3.92;;;9.40;93.60;;;;;;5072210;28;20028;-64
2023/04/02 12:14:30;;;;;;;5.55;3.85;;;9.30;93.70;;;;;;5067441;28;20040;-63
2023/04/02 12:16:56;;;;;;;6.57;4.05;;;9.40;93.50;;;;;;5067629;28;20372;-64
2023/04/02 12:19:23;;;;;;;7.75;4.50;;;9.30;93.50;;;;;;5072203;28;20036;-64
2023/04/02 12:21:51;;;;;;;6.88;4.35;;;9.30;93.40;;;;;;5071040;28;20060;-65
2023/04/02 12:24:21;;;;;;;6.63;4.45;;;9.30;93.50;;;;;;5056475;28;20541;-64
2023/04/02 12:26:47;;;;;;;6.68;4.10;;;9.30;93.50;;;;;;5070814;28;20063;-58
2023/04/02 12:29:26;;;;;;;4.55;3.88;;;9.30;93.30;;;;;;5071640;28;20054;-60
2023/04/02 12:31:54;;;;;;;5.00;3.80;;;9.30;93.40;;;;;;5066322;28;20025;-64
2023/04/02 12:34:22;;;;;;;6.85;4.53;;;9.30;93.30;;;;;;5067670;28;20033;-64
2023/04/02 12:36:56;;;;;;;5.50;4.35;;;9.30;93.30;;;;;;5069119;28;20024;-63
2023/04/02 12:39:22;;;;;;;5.75;4.32;;;9.30;93.10;;;;;;5066695;28;20563;-64
2023/04/02 12:41:48;;;;;;;5.03;3.30;;;9.30;93.10;;;;;;5070695;28;20020;-64
2023/04/02 12:44:17;;;;;;;5.85;3.95;;;9.30;93.00;;;;;;5071315;28;20016;-64
2023/04/02 12:46:44;;;;;;;4.78;3.75;;;9.30;93.00;;;;;;5071061;28;20024;-56
2023/04/02 12:49:33;;;;;;;5.25;3.53;;;9.30;92.90;;;;;;5071818;28;20029;-59
2023/04/02 12:52:06;;;;;;;5.50;3.70;;;9.30;92.60;;;;;;5072169;28;20056;-63
2023/04/02 12:54:37;;;;;;;4.53;3.50;;;9.30;92.80;;;;;;5064452;28;20124;-63
2023/04/02 12:57:29;;;;;;;;;;;9.30;92.70;;;;;;5066771;28;20029;-57
2023/04/02 13:00:19;;;;;;;4.68;3.13;;;9.30;92.60;;;;;;5072181;28;20359;-58
2023/04/02 13:02:48;;;;;;;4.10;3.10;;;9.30;92.80;;;;;;5057917;28;20145;-58
2023/04/02 13:05:41;;;;;;;4.47;3.40;;;9.30;92.90;;;;;;5070654;28;20025;-59
2023/04/02 13:08:25;;;;;;;4.75;3.67;;;9.30;92.80;;;;;;5070445;28;20502;-63
2023/04/02 13:10:59;;;;;;;4.35;3.20;;;9.30;92.80;;;;;;5057963;28;20033;-65
2023/04/02 13:13:37;;;;;;;4.70;3.40;;;9.20;92.90;;;;;;5072577;28;20029;-66
2023/04/02 13:16:06;;;;;;;4.95;3.20;;;9.30;93.00;;;;;;5071983;28;20029;-63
2023/04/02 13:18:35;;;;;;;4.57;3.47;;;9.20;93.20;;;;;;5070181;28;20103;-64
2023/04/02 13:21:02;;;;;;;4.03;3.30;;;9.20;93.30;;;;;;5071303;28;20035;-65
2023/04/02 13:23:32;;;;;;;4.00;3.33;;;9.20;93.50;;;;;;5071556;28;20044;-64
2023/04/02 13:26:00;;;;;;;3.25;2.90;;;9.20;93.70;;;;;;5074512;28;20036;-64
2023/04/02 13:28:26;;;;;;;3.95;2.92;;;9.10;93.80;;;;;;5075507;28;20115;-64
2023/04/02 13:30:52;;;;;;;4.15;3.28;;;9.10;93.90;;;;;;5075702;28;20032;-60
2023/04/02 13:33:19;;;;;;;3.33;3.00;;;9.10;93.90;;;;;;5071516;28;20040;-58
2023/04/02 13:35:45;;;;;;;5.22;3.72;;;9.00;94.10;;;;;;5075569;28;20051;-64